sensor_id;sensor_type;location;lat;lon;timestamp;P1;durP1;ratioP1;P2;durP2;ratioP2
13571;SDS011;6857;53.484;10.216;2024-01-30T00:01:11;10.53;;;5.60;;
13571;SDS011;6857;53.484;10.216;2024-01-30T00:03:36;8.30;;;5.27;;
13571;SDS011;6857;53.484;10.216;2024-01-30T00:06:05;8.17;;;5.80;;
13571;SDS011;6857;53.484;10.216;2024-01-30T00:08:31;9.87;;;5.00;;
13571;SDS011;6857;53.484;10.216;2024-01-30T00:10:56;9.03;;;5.60;;
13571;SDS011;6857;53.484;10.216;2024-01-30T00:13:22;8.87;;;5.70;;
13571;SDS011;6857;53.484;10.216;2024-01-30T00:15:47;6.77;;;5.00;;
13571;SDS011;6857;53.484;10.216;2024-01-30T00:18:13;11.90;;;5.63;;
13571;SDS011;6857;53.484;10.216;2024-01-30T00:20:39;8.87;;;5.40;;
13571;SDS011;6857;53.484;10.216;2024-01-30T00:23:04;6.67;;;5.23;;
13571;SDS011;6857;53.484;10.216;2024-01-30T00:25:30;6.80;;;5.10;;
13571;SDS011;6857;53.484;10.216;2024-01-30T00:27:56;7.70;;;5.30;;
13571;SDS011;6857;53.484;10.216;2024-01-30T00:30:21;8.83;;;5.20;;
13571;SDS011;6857;53.484;10.216;2024-01-30T00:32:47;7.73;;;5.60;;
13571;SDS011;6857;53.484;10.216;2024-01-30T00:35:12;11.73;;;6.20;;
13571;SDS011;6857;53.484;10.216;2024-01-30T00:37:38;8.27;;;5.97;;
13571;SDS011;6857;53.484;10.216;2024-01-30T00:40:04;7.40;;;5.37;;
13571;SDS011;6857;53.484;10.216;2024-01-30T00:42:31;9.03;;;5.47;;
13571;SDS011;6857;53.484;10.216;2024-01-30T00:44:56;8.43;;;5.40;;
13571;SDS011;6857;53.484;10.216;2024-01-30T00:47:22;7.03;;;4.97;;
13571;SDS011;6857;53.484;10.216;2024-01-30T00:49:48;10.07;;;5.67;;
13571;SDS011;6857;53.484;10.216;2024-01-30T00:52:13;8.03;;;5.23;;
13571;SDS011;6857;53.484;10.216;2024-01-30T00:54:39;11.50;;;5.67;;
13571;SDS011;6857;53.484;10.216;2024-01-30T00:57:04;8.07;;;5.40;;
13571;SDS011;6857;53.484;10.216;2024-01-30T00:59:30;8.40;;;5.30;;
13571;SDS011;6857;53.484;10.216;2024-01-30T01:01:56;7.70;;;5.37;;
13571;SDS011;6857;53.484;10.216;2024-01-30T01:04:21;11.30;;;6.33;;
13571;SDS011;6857;53.484;10.216;2024-01-30T01:06:47;7.00;;;5.50;;
13571;SDS011;6857;53.484;10.216;2024-01-30T01:09:12;7.77;;;5.50;;
13571;SDS011;6857;53.484;10.216;2024-01-30T01:11:38;7.43;;;5.37;;
13571;SDS011;6857;53.484;10.216;2024-01-30T01:14:04;7.43;;;5.43;;
13571;SDS011;6857;53.484;10.216;2024-01-30T01:16:30;8.50;;;5.80;;
13571;SDS011;6857;53.484;10.216;2024-01-30T01:18:55;8.00;;;5.37;;
13571;SDS011;6857;53.484;10.216;2024-01-30T01:21:21;9.10;;;5.57;;
13571;SDS011;6857;53.484;10.216;2024-01-30T01:23:48;9.43;;;5.93;;
13571;SDS011;6857;53.484;10.216;2024-01-30T01:26:13;9.07;;;6.10;;
13571;SDS011;6857;53.484;10.216;2024-01-30T01:28:40;8.10;;;5.63;;
13571;SDS011;6857;53.484;10.216;2024-01-30T01:31:06;6.80;;;4.93;;
13571;SDS011;6857;53.484;10.216;2024-01-30T01:33:32;9.00;;;5.40;;
13571;SDS011;6857;53.484;10.216;2024-01-30T01:35:58;10.20;;;5.97;;
13571;SDS011;6857;53.484;10.216;2024-01-30T01:38:24;8.23;;;5.30;;
13571;SDS011;6857;53.484;10.216;2024-01-30T01:40:50;6.40;;;5.30;;
13571;SDS011;6857;53.484;10.216;2024-01-30T01:43:16;7.47;;;5.90;;
13571;SDS011;6857;53.484;10.216;2024-01-30T01:45:42;7.37;;;5.60;;
13571;SDS011;6857;53.484;10.216;2024-01-30T01:48:07;8.63;;;5.40;;
13571;SDS011;6857;53.484;10.216;2024-01-30T01:50:34;8.10;;;5.40;;
13571;SDS011;6857;53.484;10.216;2024-01-30T01:53:00;9.57;;;5.97;;
13571;SDS011;6857;53.484;10.216;2024-01-30T01:55:27;8.10;;;6.03;;
13571;SDS011;6857;53.484;10.216;2024-01-30T01:57:55;7.40;;;5.80;;
13571;SDS011;6857;53.484;10.216;2024-01-30T02:00:21;7.37;;;5.47;;
13571;SDS011;6857;53.484;10.216;2024-01-30T02:02:48;9.83;;;5.83;;
13571;SDS011;6857;53.484;10.216;2024-01-30T02:05:15;7.77;;;5.40;;
13571;SDS011;6857;53.484;10.216;2024-01-30T02:07:41;7.97;;;6.30;;
13571;SDS011;6857;53.484;10.216;2024-01-30T02:10:08;11.30;;;6.30;;
13571;SDS011;6857;53.484;10.216;2024-01-30T02:12:35;9.47;;;6.03;;
13571;SDS011;6857;53.484;10.216;2024-01-30T02:15:00;8.70;;;6.07;;
13571;SDS011;6857;53.484;10.216;2024-01-30T02:17:26;11.73;;;6.33;;
13571;SDS011;6857;53.484;10.216;2024-01-30T02:19:51;7.60;;;5.60;;
13571;SDS011;6857;53.484;10.216;2024-01-30T02:22:17;8.40;;;5.93;;
13571;SDS011;6857;53.484;10.216;2024-01-30T02:24:44;8.20;;;5.63;;
13571;SDS011;6857;53.484;10.216;2024-01-30T02:27:09;9.30;;;6.37;;
13571;SDS011;6857;53.484;10.216;2024-01-30T02:29:35;11.00;;;6.07;;
13571;SDS011;6857;53.484;10.216;2024-01-30T02:32:00;9.50;;;6.40;;
13571;SDS011;6857;53.484;10.216;2024-01-30T02:34:26;7.93;;;6.00;;
13571;SDS011;6857;53.484;10.216;2024-01-30T02:36:52;10.17;;;6.60;;
13571;SDS011;6857;53.484;10.216;2024-01-30T02:39:17;8.50;;;5.83;;
13571;SDS011;6857;53.484;10.216;2024-01-30T02:41:43;8.87;;;6.23;;
13571;SDS011;6857;53.484;10.216;2024-01-30T02:44:08;11.40;;;6.37;;
13571;SDS011;6857;53.484;10.216;2024-01-30T02:46:34;9.10;;;6.67;;
13571;SDS011;6857;53.484;10.216;2024-01-30T02:48:59;9.43;;;6.53;;
13571;SDS011;6857;53.484;10.216;2024-01-30T02:51:25;13.00;;;6.40;;
13571;SDS011;6857;53.484;10.216;2024-01-30T02:53:50;9.47;;;6.43;;
13571;SDS011;6857;53.484;10.216;2024-01-30T02:56:16;8.03;;;6.60;;
13571;SDS011;6857;53.484;10.216;2024-01-30T02:58:41;9.97;;;6.27;;
13571;SDS011;6857;53.484;10.216;2024-01-30T03:01:07;9.60;;;6.63;;
13571;SDS011;6857;53.484;10.216;2024-01-30T03:03:33;11.20;;;6.40;;
13571;SDS011;6857;53.484;10.216;2024-01-30T03:06:01;11.73;;;7.00;;
13571;SDS011;6857;53.484;10.216;2024-01-30T03:08:27;9.57;;;6.70;;
13571;SDS011;6857;53.484;10.216;2024-01-30T03:10:53;12.67;;;7.33;;
13571;SDS011;6857;53.484;10.216;2024-01-30T03:13:18;9.30;;;6.83;;
13571;SDS011;6857;53.484;10.216;2024-01-30T03:15:44;9.07;;;6.87;;
13571;SDS011;6857;53.484;10.216;2024-01-30T03:18:09;11.53;;;6.83;;
13571;SDS011;6857;53.484;10.216;2024-01-30T03:20:35;12.73;;;6.77;;
13571;SDS011;6857;53.484;10.216;2024-01-30T03:23:00;26.87;;;9.60;;
13571;SDS011;6857;53.484;10.216;2024-01-30T03:25:26;10.50;;;6.80;;
13571;SDS011;6857;53.484;10.216;2024-01-30T03:27:52;10.77;;;6.33;;
13571;SDS011;6857;53.484;10.216;2024-01-30T03:30:17;14.60;;;8.23;;
13571;SDS011;6857;53.484;10.216;2024-01-30T03:32:43;11.83;;;7.70;;
13571;SDS011;6857;53.484;10.216;2024-01-30T03:35:09;8.57;;;7.00;;
13571;SDS011;6857;53.484;10.216;2024-01-30T03:37:34;9.40;;;6.50;;
13571;SDS011;6857;53.484;10.216;2024-01-30T03:40:01;11.03;;;7.07;;
13571;SDS011;6857;53.484;10.216;2024-01-30T03:42:27;9.50;;;6.53;;
13571;SDS011;6857;53.484;10.216;2024-01-30T03:44:53;11.90;;;6.87;;
13571;SDS011;6857;53.484;10.216;2024-01-30T03:47:19;11.40;;;7.10;;
13571;SDS011;6857;53.484;10.216;2024-01-30T03:49:45;9.53;;;7.03;;
13571;SDS011;6857;53.484;10.216;2024-01-30T03:52:11;9.73;;;7.17;;
13571;SDS011;6857;53.484;10.216;2024-01-30T03:54:43;14.50;;;7.90;;
13571;SDS011;6857;53.484;10.216;2024-01-30T03:57:31;11.63;;;7.30;;
13571;SDS011;6857;53.484;10.216;2024-01-30T03:59:57;10.37;;;6.47;;
13571;SDS011;6857;53.484;10.216;2024-01-30T04:02:41;12.10;;;7.20;;
13571;SDS011;6857;53.484;10.216;2024-01-30T04:05:19;10.00;;;6.93;;
13571;SDS011;6857;53.484;10.216;2024-01-30T04:07:48;10.00;;;7.03;;
13571;SDS011;6857;53.484;10.216;2024-01-30T04:10:13;10.20;;;6.90;;
13571;SDS011;6857;53.484;10.216;2024-01-30T04:13:09;10.30;;;7.57;;
13571;SDS011;6857;53.484;10.216;2024-01-30T04:15:44;10.20;;;7.27;;
13571;SDS011;6857;53.484;10.216;2024-01-30T04:21:43;14.13;;;7.83;;
13571;SDS011;6857;53.484;10.216;2024-01-30T04:24:11;9.77;;;7.20;;
13571;SDS011;6857;53.484;10.216;2024-01-30T04:26:57;12.10;;;7.97;;
13571;SDS011;6857;53.484;10.216;2024-01-30T04:29:26;14.63;;;8.70;;
13571;SDS011;6857;53.484;10.216;2024-01-30T04:31:54;14.73;;;8.60;;
13571;SDS011;6857;53.484;10.216;2024-01-30T04:37:49;10.83;;;7.57;;
13571;SDS011;6857;53.484;10.216;2024-01-30T04:40:18;14.10;;;8.67;;
13571;SDS011;6857;53.484;10.216;2024-01-30T04:42:44;13.43;;;7.87;;
13571;SDS011;6857;53.484;10.216;2024-01-30T04:45:19;11.73;;;7.73;;
13571;SDS011;6857;53.484;10.216;2024-01-30T04:47:48;10.53;;;7.67;;
13571;SDS011;6857;53.484;10.216;2024-01-30T04:50:14;10.93;;;7.93;;
13571;SDS011;6857;53.484;10.216;2024-01-30T04:52:44;11.63;;;7.70;;
13571;SDS011;6857;53.484;10.216;2024-01-30T04:55:15;12.47;;;8.10;;
13571;SDS011;6857;53.484;10.216;2024-01-30T04:57:44;10.63;;;8.27;;
13571;SDS011;6857;53.484;10.216;2024-01-30T05:00:11;12.47;;;8.23;;
13571;SDS011;6857;53.484;10.216;2024-01-30T05:02:43;12.60;;;7.93;;
13571;SDS011;6857;53.484;10.216;2024-01-30T05:05:18;10.57;;;8.03;;
13571;SDS011;6857;53.484;10.216;2024-01-30T05:07:54;10.40;;;7.93;;
13571;SDS011;6857;53.484;10.216;2024-01-30T05:10:36;11.83;;;7.57;;
13571;SDS011;6857;53.484;10.216;2024-01-30T05:13:15;11.57;;;7.77;;
13571;SDS011;6857;53.484;10.216;2024-01-30T05:15:41;10.37;;;7.60;;
13571;SDS011;6857;53.484;10.216;2024-01-30T05:18:10;12.57;;;7.60;;
13571;SDS011;6857;53.484;10.216;2024-01-30T05:20:44;12.37;;;7.73;;
13571;SDS011;6857;53.484;10.216;2024-01-30T05:23:10;15.23;;;8.57;;
13571;SDS011;6857;53.484;10.216;2024-01-30T05:25:45;15.20;;;8.40;;
13571;SDS011;6857;53.484;10.216;2024-01-30T05:28:17;14.97;;;8.43;;
13571;SDS011;6857;53.484;10.216;2024-01-30T05:30:43;14.30;;;8.73;;
13571;SDS011;6857;53.484;10.216;2024-01-30T05:33:08;12.93;;;8.10;;
13571;SDS011;6857;53.484;10.216;2024-01-30T05:35:38;11.87;;;7.90;;
13571;SDS011;6857;53.484;10.216;2024-01-30T05:38:06;11.77;;;8.03;;
13571;SDS011;6857;53.484;10.216;2024-01-30T05:40:41;18.97;;;8.67;;
13571;SDS011;6857;53.484;10.216;2024-01-30T05:43:28;15.23;;;8.30;;
13571;SDS011;6857;53.484;10.216;2024-01-30T05:46:00;15.07;;;8.77;;
13571;SDS011;6857;53.484;10.216;2024-01-30T05:48:29;13.07;;;8.30;;
13571;SDS011;6857;53.484;10.216;2024-01-30T05:51:03;10.83;;;8.17;;
13571;SDS011;6857;53.484;10.216;2024-01-30T05:53:38;12.37;;;8.37;;
13571;SDS011;6857;53.484;10.216;2024-01-30T05:56:07;14.93;;;8.97;;
13571;SDS011;6857;53.484;10.216;2024-01-30T05:58:37;13.67;;;8.77;;
13571;SDS011;6857;53.484;10.216;2024-01-30T06:01:06;13.23;;;8.87;;
13571;SDS011;6857;53.484;10.216;2024-01-30T06:03:34;13.27;;;8.90;;
13571;SDS011;6857;53.484;10.216;2024-01-30T06:06:08;15.50;;;9.10;;
13571;SDS011;6857;53.484;10.216;2024-01-30T06:08:37;14.37;;;8.73;;
13571;SDS011;6857;53.484;10.216;2024-01-30T06:11:03;15.70;;;9.23;;
13571;SDS011;6857;53.484;10.216;2024-01-30T06:13:35;13.30;;;9.80;;
13571;SDS011;6857;53.484;10.216;2024-01-30T06:16:12;13.93;;;8.40;;
13571;SDS011;6857;53.484;10.216;2024-01-30T06:19:01;16.40;;;9.23;;
13571;SDS011;6857;53.484;10.216;2024-01-30T06:21:27;15.03;;;9.40;;
13571;SDS011;6857;53.484;10.216;2024-01-30T06:23:55;16.17;;;9.60;;
13571;SDS011;6857;53.484;10.216;2024-01-30T06:26:21;12.57;;;8.70;;
13571;SDS011;6857;53.484;10.216;2024-01-30T06:28:50;16.27;;;10.13;;
13571;SDS011;6857;53.484;10.216;2024-01-30T06:31:42;15.93;;;9.60;;
13571;SDS011;6857;53.484;10.216;2024-01-30T06:34:23;15.73;;;10.23;;
13571;SDS011;6857;53.484;10.216;2024-01-30T06:36:55;15.83;;;9.87;;
13571;SDS011;6857;53.484;10.216;2024-01-30T06:39:21;17.23;;;10.80;;
13571;SDS011;6857;53.484;10.216;2024-01-30T06:41:51;14.27;;;9.03;;
13571;SDS011;6857;53.484;10.216;2024-01-30T06:44:19;17.57;;;10.30;;
13571;SDS011;6857;53.484;10.216;2024-01-30T06:47:15;18.67;;;10.40;;
13571;SDS011;6857;53.484;10.216;2024-01-30T06:49:41;15.17;;;10.37;;
13571;SDS011;6857;53.484;10.216;2024-01-30T06:52:08;17.70;;;9.90;;
13571;SDS011;6857;53.484;10.216;2024-01-30T06:54:37;15.30;;;10.23;;
13571;SDS011;6857;53.484;10.216;2024-01-30T06:57:06;14.30;;;10.33;;
13571;SDS011;6857;53.484;10.216;2024-01-30T06:59:37;14.20;;;10.53;;
13571;SDS011;6857;53.484;10.216;2024-01-30T07:02:08;16.37;;;10.63;;
13571;SDS011;6857;53.484;10.216;2024-01-30T07:04:35;16.23;;;10.63;;
13571;SDS011;6857;53.484;10.216;2024-01-30T07:07:09;14.83;;;10.10;;
13571;SDS011;6857;53.484;10.216;2024-01-30T07:09:43;20.23;;;10.80;;
13571;SDS011;6857;53.484;10.216;2024-01-30T07:12:09;18.33;;;10.90;;
13571;SDS011;6857;53.484;10.216;2024-01-30T07:14:36;16.80;;;10.73;;
13571;SDS011;6857;53.484;10.216;2024-01-30T07:17:55;18.40;;;11.07;;
13571;SDS011;6857;53.484;10.216;2024-01-30T07:20:17;14.47;;;9.30;;
13571;SDS011;6857;53.484;10.216;2024-01-30T07:22:45;15.47;;;10.17;;
13571;SDS011;6857;53.484;10.216;2024-01-30T07:25:16;15.10;;;10.13;;
13571;SDS011;6857;53.484;10.216;2024-01-30T07:27:45;17.80;;;11.67;;
13571;SDS011;6857;53.484;10.216;2024-01-30T07:30:23;20.77;;;12.57;;
13571;SDS011;6857;53.484;10.216;2024-01-30T07:33:04;23.33;;;13.70;;
13571;SDS011;6857;53.484;10.216;2024-01-30T07:35:29;21.17;;;12.07;;
13571;SDS011;6857;53.484;10.216;2024-01-30T07:38:01;18.57;;;11.47;;
13571;SDS011;6857;53.484;10.216;2024-01-30T07:43:24;18.23;;;12.53;;
13571;SDS011;6857;53.484;10.216;2024-01-30T07:45:50;17.83;;;11.63;;
13571;SDS011;6857;53.484;10.216;2024-01-30T07:48:15;13.73;;;10.23;;
13571;SDS011;6857;53.484;10.216;2024-01-30T07:50:56;16.53;;;11.30;;
13571;SDS011;6857;53.484;10.216;2024-01-30T07:53:22;18.87;;;10.30;;
13571;SDS011;6857;53.484;10.216;2024-01-30T07:55:47;18.43;;;12.13;;
13571;SDS011;6857;53.484;10.216;2024-01-30T07:58:13;16.77;;;11.40;;
13571;SDS011;6857;53.484;10.216;2024-01-30T08:00:38;19.60;;;11.70;;
13571;SDS011;6857;53.484;10.216;2024-01-30T08:03:04;20.93;;;12.33;;
13571;SDS011;6857;53.484;10.216;2024-01-30T08:05:30;18.80;;;12.33;;
13571;SDS011;6857;53.484;10.216;2024-01-30T08:07:56;19.50;;;11.17;;
13571;SDS011;6857;53.484;10.216;2024-01-30T08:10:21;14.23;;;10.80;;
13571;SDS011;6857;53.484;10.216;2024-01-30T08:12:47;17.93;;;11.23;;
13571;SDS011;6857;53.484;10.216;2024-01-30T08:15:12;19.17;;;12.47;;
13571;SDS011;6857;53.484;10.216;2024-01-30T08:17:38;18.80;;;11.73;;
13571;SDS011;6857;53.484;10.216;2024-01-30T08:20:04;16.93;;;11.47;;
13571;SDS011;6857;53.484;10.216;2024-01-30T08:22:30;19.57;;;12.33;;
13571;SDS011;6857;53.484;10.216;2024-01-30T08:24:56;15.67;;;11.50;;
13571;SDS011;6857;53.484;10.216;2024-01-30T08:27:21;21.60;;;12.20;;
13571;SDS011;6857;53.484;10.216;2024-01-30T08:29:47;17.10;;;10.87;;
13571;SDS011;6857;53.484;10.216;2024-01-30T08:32:12;16.50;;;11.43;;
13571;SDS011;6857;53.484;10.216;2024-01-30T08:34:38;21.57;;;13.60;;
13571;SDS011;6857;53.484;10.216;2024-01-30T08:37:04;18.73;;;12.07;;
13571;SDS011;6857;53.484;10.216;2024-01-30T08:39:29;28.57;;;14.03;;
13571;SDS011;6857;53.484;10.216;2024-01-30T08:41:55;19.40;;;11.67;;
13571;SDS011;6857;53.484;10.216;2024-01-30T08:44:21;16.33;;;11.20;;
13571;SDS011;6857;53.484;10.216;2024-01-30T08:46:46;25.97;;;14.20;;
13571;SDS011;6857;53.484;10.216;2024-01-30T08:49:13;31.97;;;13.50;;
13571;SDS011;6857;53.484;10.216;2024-01-30T08:51:39;18.97;;;11.70;;
13571;SDS011;6857;53.484;10.216;2024-01-30T08:54:05;19.53;;;12.87;;
13571;SDS011;6857;53.484;10.216;2024-01-30T08:56:30;19.33;;;11.67;;
13571;SDS011;6857;53.484;10.216;2024-01-30T08:58:56;15.97;;;11.83;;
13571;SDS011;6857;53.484;10.216;2024-01-30T09:01:21;17.67;;;11.77;;
13571;SDS011;6857;53.484;10.216;2024-01-30T09:03:47;19.80;;;12.57;;
13571;SDS011;6857;53.484;10.216;2024-01-30T09:06:12;16.60;;;11.80;;
13571;SDS011;6857;53.484;10.216;2024-01-30T09:08:38;19.70;;;11.87;;
13571;SDS011;6857;53.484;10.216;2024-01-30T09:11:14;21.87;;;13.97;;
13571;SDS011;6857;53.484;10.216;2024-01-30T09:13:40;17.23;;;11.80;;
13571;SDS011;6857;53.484;10.216;2024-01-30T09:16:06;14.63;;;10.93;;
13571;SDS011;6857;53.484;10.216;2024-01-30T09:18:32;15.47;;;11.30;;
13571;SDS011;6857;53.484;10.216;2024-01-30T09:20:57;17.77;;;11.43;;
13571;SDS011;6857;53.484;10.216;2024-01-30T09:23:23;14.17;;;10.60;;
13571;SDS011;6857;53.484;10.216;2024-01-30T09:25:49;18.47;;;11.37;;
13571;SDS011;6857;53.484;10.216;2024-01-30T09:28:15;16.97;;;11.60;;
13571;SDS011;6857;53.484;10.216;2024-01-30T09:30:42;16.43;;;11.00;;
13571;SDS011;6857;53.484;10.216;2024-01-30T09:33:07;18.00;;;11.17;;
13571;SDS011;6857;53.484;10.216;2024-01-30T09:35:33;18.30;;;12.20;;
13571;SDS011;6857;53.484;10.216;2024-01-30T09:37:59;15.73;;;11.37;;
13571;SDS011;6857;53.484;10.216;2024-01-30T09:40:24;17.70;;;11.77;;
13571;SDS011;6857;53.484;10.216;2024-01-30T09:42:50;13.53;;;10.30;;
13571;SDS011;6857;53.484;10.216;2024-01-30T09:45:19;17.87;;;10.90;;
13571;SDS011;6857;53.484;10.216;2024-01-30T09:47:50;16.80;;;11.03;;
13571;SDS011;6857;53.484;10.216;2024-01-30T09:50:16;17.77;;;10.67;;
13571;SDS011;6857;53.484;10.216;2024-01-30T09:52:45;17.00;;;12.00;;
13571;SDS011;6857;53.484;10.216;2024-01-30T09:55:11;19.23;;;11.50;;
13571;SDS011;6857;53.484;10.216;2024-01-30T09:57:37;18.33;;;11.83;;
13571;SDS011;6857;53.484;10.216;2024-01-30T10:00:03;15.53;;;11.03;;
13571;SDS011;6857;53.484;10.216;2024-01-30T10:02:32;17.33;;;11.90;;
13571;SDS011;6857;53.484;10.216;2024-01-30T10:04:58;17.47;;;11.50;;
13571;SDS011;6857;53.484;10.216;2024-01-30T10:07:25;16.10;;;10.87;;
13571;SDS011;6857;53.484;10.216;2024-01-30T10:09:50;14.27;;;10.50;;
13571;SDS011;6857;53.484;10.216;2024-01-30T10:12:18;15.93;;;10.30;;
13571;SDS011;6857;53.484;10.216;2024-01-30T10:14:43;19.23;;;10.50;;
13571;SDS011;6857;53.484;10.216;2024-01-30T10:17:09;14.57;;;10.97;;
13571;SDS011;6857;53.484;10.216;2024-01-30T10:19:36;18.80;;;10.87;;
13571;SDS011;6857;53.484;10.216;2024-01-30T10:22:05;15.90;;;10.73;;
13571;SDS011;6857;53.484;10.216;2024-01-30T10:24:31;14.93;;;10.20;;
13571;SDS011;6857;53.484;10.216;2024-01-30T10:26:59;17.93;;;10.70;;
13571;SDS011;6857;53.484;10.216;2024-01-30T10:29:24;14.17;;;10.47;;
13571;SDS011;6857;53.484;10.216;2024-01-30T10:32:02;15.13;;;10.67;;
13571;SDS011;6857;53.484;10.216;2024-01-30T10:34:31;17.70;;;11.30;;
13571;SDS011;6857;53.484;10.216;2024-01-30T10:37:05;16.23;;;10.90;;
13571;SDS011;6857;53.484;10.216;2024-01-30T10:39:38;17.10;;;11.47;;
13571;SDS011;6857;53.484;10.216;2024-01-30T10:42:05;18.10;;;11.33;;
13571;SDS011;6857;53.484;10.216;2024-01-30T10:44:39;15.70;;;9.50;;
13571;SDS011;6857;53.484;10.216;2024-01-30T10:47:18;15.17;;;10.50;;
13571;SDS011;6857;53.484;10.216;2024-01-30T10:49:55;14.77;;;10.10;;
13571;SDS011;6857;53.484;10.216;2024-01-30T10:52:22;12.47;;;10.03;;
13571;SDS011;6857;53.484;10.216;2024-01-30T10:54:50;17.60;;;11.30;;
13571;SDS011;6857;53.484;10.216;2024-01-30T10:57:17;16.40;;;11.70;;
13571;SDS011;6857;53.484;10.216;2024-01-30T10:59:42;15.40;;;10.03;;
13571;SDS011;6857;53.484;10.216;2024-01-30T11:02:09;14.67;;;9.90;;
13571;SDS011;6857;53.484;10.216;2024-01-30T11:04:36;15.40;;;10.53;;
13571;SDS011;6857;53.484;10.216;2024-01-30T11:07:02;13.83;;;10.13;;
13571;SDS011;6857;53.484;10.216;2024-01-30T11:09:38;13.93;;;9.33;;
13571;SDS011;6857;53.484;10.216;2024-01-30T11:12:04;11.30;;;8.63;;
13571;SDS011;6857;53.484;10.216;2024-01-30T11:14:30;13.57;;;9.67;;
13571;SDS011;6857;53.484;10.216;2024-01-30T11:16:58;13.50;;;9.70;;
13571;SDS011;6857;53.484;10.216;2024-01-30T11:19:30;15.83;;;10.30;;
13571;SDS011;6857;53.484;10.216;2024-01-30T11:21:56;17.40;;;9.80;;
13571;SDS011;6857;53.484;10.216;2024-01-30T11:24:25;15.63;;;10.70;;
13571;SDS011;6857;53.484;10.216;2024-01-30T11:26:58;28.93;;;22.27;;
13571;SDS011;6857;53.484;10.216;2024-01-30T11:29:27;16.87;;;12.50;;
13571;SDS011;6857;53.484;10.216;2024-01-30T11:31:54;11.77;;;9.17;;
13571;SDS011;6857;53.484;10.216;2024-01-30T11:34:21;14.70;;;9.87;;
13571;SDS011;6857;53.484;10.216;2024-01-30T11:36:57;14.67;;;10.57;;
13571;SDS011;6857;53.484;10.216;2024-01-30T11:39:28;14.50;;;9.07;;
13571;SDS011;6857;53.484;10.216;2024-01-30T11:41:55;13.77;;;9.73;;
13571;SDS011;6857;53.484;10.216;2024-01-30T11:44:21;19.13;;;12.23;;
13571;SDS011;6857;53.484;10.216;2024-01-30T11:46:50;12.73;;;8.97;;
13571;SDS011;6857;53.484;10.216;2024-01-30T11:49:16;12.53;;;9.43;;
13571;SDS011;6857;53.484;10.216;2024-01-30T11:51:43;13.23;;;9.10;;
13571;SDS011;6857;53.484;10.216;2024-01-30T11:54:10;14.53;;;9.93;;
13571;SDS011;6857;53.484;10.216;2024-01-30T11:56:36;11.67;;;9.10;;
13571;SDS011;6857;53.484;10.216;2024-01-30T11:59:02;12.97;;;9.20;;
13571;SDS011;6857;53.484;10.216;2024-01-30T12:01:28;13.50;;;9.33;;
13571;SDS011;6857;53.484;10.216;2024-01-30T12:03:54;13.97;;;9.33;;
13571;SDS011;6857;53.484;10.216;2024-01-30T12:06:21;12.60;;;9.37;;
13571;SDS011;6857;53.484;10.216;2024-01-30T12:09:00;15.57;;;10.23;;
13571;SDS011;6857;53.484;10.216;2024-01-30T12:11:29;13.80;;;9.17;;
13571;SDS011;6857;53.484;10.216;2024-01-30T12:13:55;12.07;;;8.73;;
13571;SDS011;6857;53.484;10.216;2024-01-30T12:16:21;11.23;;;9.37;;
13571;SDS011;6857;53.484;10.216;2024-01-30T12:18:47;13.53;;;10.83;;
13571;SDS011;6857;53.484;10.216;2024-01-30T12:21:15;15.37;;;10.77;;
13571;SDS011;6857;53.484;10.216;2024-01-30T12:23:42;13.17;;;9.73;;
13571;SDS011;6857;53.484;10.216;2024-01-30T12:26:08;12.50;;;8.77;;
13571;SDS011;6857;53.484;10.216;2024-01-30T12:28:33;12.37;;;9.50;;
13571;SDS011;6857;53.484;10.216;2024-01-30T12:31:02;12.80;;;9.33;;
13571;SDS011;6857;53.484;10.216;2024-01-30T12:33:29;15.33;;;11.13;;
13571;SDS011;6857;53.484;10.216;2024-01-30T12:35:55;11.73;;;9.33;;
13571;SDS011;6857;53.484;10.216;2024-01-30T12:38:21;18.50;;;11.37;;
13571;SDS011;6857;53.484;10.216;2024-01-30T12:40:48;16.47;;;11.10;;
13571;SDS011;6857;53.484;10.216;2024-01-30T12:43:14;13.53;;;10.77;;
13571;SDS011;6857;53.484;10.216;2024-01-30T12:45:41;15.70;;;11.83;;
13571;SDS011;6857;53.484;10.216;2024-01-30T12:48:07;15.13;;;10.57;;
13571;SDS011;6857;53.484;10.216;2024-01-30T12:50:33;15.80;;;11.57;;
13571;SDS011;6857;53.484;10.216;2024-01-30T12:52:59;15.93;;;9.13;;
13571;SDS011;6857;53.484;10.216;2024-01-30T12:55:25;11.43;;;8.37;;
13571;SDS011;6857;53.484;10.216;2024-01-30T12:57:53;12.23;;;8.47;;
13571;SDS011;6857;53.484;10.216;2024-01-30T13:00:19;15.27;;;8.97;;
13571;SDS011;6857;53.484;10.216;2024-01-30T13:02:45;10.60;;;8.17;;
13571;SDS011;6857;53.484;10.216;2024-01-30T13:05:12;13.03;;;8.50;;
13571;SDS011;6857;53.484;10.216;2024-01-30T13:07:37;11.20;;;8.27;;
13571;SDS011;6857;53.484;10.216;2024-01-30T13:10:03;10.80;;;8.37;;
13571;SDS011;6857;53.484;10.216;2024-01-30T13:12:29;11.43;;;8.33;;
13571;SDS011;6857;53.484;10.216;2024-01-30T13:14:57;11.90;;;7.50;;
13571;SDS011;6857;53.484;10.216;2024-01-30T13:17:22;10.17;;;8.33;;
13571;SDS011;6857;53.484;10.216;2024-01-30T13:19:48;16.13;;;7.97;;
13571;SDS011;6857;53.484;10.216;2024-01-30T13:22:14;11.53;;;7.47;;
13571;SDS011;6857;53.484;10.216;2024-01-30T13:24:40;10.83;;;6.87;;
13571;SDS011;6857;53.484;10.216;2024-01-30T13:27:06;9.27;;;7.20;;
13571;SDS011;6857;53.484;10.216;2024-01-30T13:29:32;12.23;;;7.37;;
13571;SDS011;6857;53.484;10.216;2024-01-30T13:31:58;11.10;;;7.40;;
13571;SDS011;6857;53.484;10.216;2024-01-30T13:34:23;10.53;;;7.07;;
13571;SDS011;6857;53.484;10.216;2024-01-30T13:36:49;11.23;;;7.20;;
13571;SDS011;6857;53.484;10.216;2024-01-30T13:39:15;9.53;;;7.20;;
13571;SDS011;6857;53.484;10.216;2024-01-30T13:41:41;11.70;;;7.00;;
13571;SDS011;6857;53.484;10.216;2024-01-30T13:44:07;10.60;;;7.00;;
13571;SDS011;6857;53.484;10.216;2024-01-30T13:46:34;10.67;;;7.33;;
13571;SDS011;6857;53.484;10.216;2024-01-30T13:49:00;10.87;;;7.33;;
13571;SDS011;6857;53.484;10.216;2024-01-30T13:51:25;10.47;;;6.80;;
13571;SDS011;6857;53.484;10.216;2024-01-30T13:53:51;10.80;;;7.37;;
13571;SDS011;6857;53.484;10.216;2024-01-30T13:56:16;9.60;;;7.20;;
13571;SDS011;6857;53.484;10.216;2024-01-30T13:58:42;12.23;;;7.00;;
13571;SDS011;6857;53.484;10.216;2024-01-30T14:01:07;10.83;;;7.17;;
13571;SDS011;6857;53.484;10.216;2024-01-30T14:03:34;15.17;;;9.83;;
13571;SDS011;6857;53.484;10.216;2024-01-30T14:06:00;20.43;;;12.67;;
13571;SDS011;6857;53.484;10.216;2024-01-30T14:08:26;13.87;;;9.37;;
13571;SDS011;6857;53.484;10.216;2024-01-30T14:10:53;12.07;;;7.37;;
13571;SDS011;6857;53.484;10.216;2024-01-30T14:13:20;13.50;;;9.67;;
13571;SDS011;6857;53.484;10.216;2024-01-30T14:15:45;15.10;;;9.27;;
13571;SDS011;6857;53.484;10.216;2024-01-30T14:18:11;13.83;;;9.87;;
13571;SDS011;6857;53.484;10.216;2024-01-30T14:20:36;10.87;;;8.10;;
13571;SDS011;6857;53.484;10.216;2024-01-30T14:23:02;19.77;;;12.33;;
13571;SDS011;6857;53.484;10.216;2024-01-30T14:25:27;10.47;;;8.37;;
13571;SDS011;6857;53.484;10.216;2024-01-30T14:27:53;12.63;;;8.20;;
13571;SDS011;6857;53.484;10.216;2024-01-30T14:30:19;11.97;;;8.20;;
13571;SDS011;6857;53.484;10.216;2024-01-30T14:32:44;11.17;;;7.30;;
13571;SDS011;6857;53.484;10.216;2024-01-30T14:35:10;14.07;;;8.27;;
13571;SDS011;6857;53.484;10.216;2024-01-30T14:37:36;12.63;;;7.90;;
13571;SDS011;6857;53.484;10.216;2024-01-30T14:40:02;14.20;;;8.17;;
13571;SDS011;6857;53.484;10.216;2024-01-30T14:42:28;11.57;;;8.70;;
13571;SDS011;6857;53.484;10.216;2024-01-30T14:44:56;11.23;;;7.40;;
13571;SDS011;6857;53.484;10.216;2024-01-30T14:47:22;24.30;;;14.00;;